sensor_id;sensor_type;location;lat;lon;timestamp;temperature;humidity
60723;DHT22;46574;52.818;6.516;2023-01-13T00:00:27;9.70;99.90
60723;DHT22;46574;52.818;6.516;2023-01-13T00:02:54;9.70;99.90
60723;DHT22;46574;52.818;6.516;2023-01-13T00:05:20;9.70;99.90
60723;DHT22;46574;52.818;6.516;2023-01-13T00:07:46;9.60;99.90
60723;DHT22;46574;52.818;6.516;2023-01-13T00:10:13;9.60;99.90
60723;DHT22;46574;52.818;6.516;2023-01-13T00:12:42;9.50;99.90
60723;DHT22;46574;52.818;6.516;2023-01-13T00:15:09;9.50;99.90
60723;DHT22;46574;52.818;6.516;2023-01-13T00:17:35;9.50;99.90
60723;DHT22;46574;52.818;6.516;2023-01-13T00:20:01;9.40;99.90
60723;DHT22;46574;52.818;6.516;2023-01-13T00:22:27;9.40;99.90
60723;DHT22;46574;52.818;6.516;2023-01-13T00:24:53;9.40;99.90
60723;DHT22;46574;52.818;6.516;2023-01-13T00:27:19;9.40;99.90
60723;DHT22;46574;52.818;6.516;2023-01-13T00:29:45;9.30;99.90
60723;DHT22;46574;52.818;6.516;2023-01-13T00:32:11;9.30;99.90
60723;DHT22;46574;52.818;6.516;2023-01-13T00:34:37;9.20;99.90
60723;DHT22;46574;52.818;6.516;2023-01-13T00:37:03;9.20;99.90
60723;DHT22;46574;52.818;6.516;2023-01-13T00:39:28;9.20;99.90
60723;DHT22;46574;52.818;6.516;2023-01-13T00:41:54;9.20;99.90
60723;DHT22;46574;52.818;6.516;2023-01-13T00:44:38;9.10;99.90
60723;DHT22;46574;52.818;6.516;2023-01-13T00:47:04;9.10;99.90
60723;DHT22;46574;52.818;6.516;2023-01-13T00:49:29;9.00;99.90
60723;DHT22;46574;52.818;6.516;2023-01-13T00:51:55;9.00;99.90
60723;DHT22;46574;52.818;6.516;2023-01-13T00:54:21;9.00;99.90
60723;DHT22;46574;52.818;6.516;2023-01-13T00:56:46;8.90;99.90
60723;DHT22;46574;52.818;6.516;2023-01-13T00:59:12;8.90;99.90
60723;DHT22;46574;52.818;6.516;2023-01-13T01:01:39;8.90;99.90
60723;DHT22;46574;52.818;6.516;2023-01-13T01:04:05;8.80;99.90
60723;DHT22;46574;52.818;6.516;2023-01-13T01:06:31;8.80;99.90
60723;DHT22;46574;52.818;6.516;2023-01-13T01:08:56;8.80;99.90
60723;DHT22;46574;52.818;6.516;2023-01-13T01:11:25;8.90;99.90
60723;DHT22;46574;52.818;6.516;2023-01-13T01:13:53;9.00;99.90
60723;DHT22;46574;52.818;6.516;2023-01-13T01:16:22;9.00;99.90
60723;DHT22;46574;52.818;6.516;2023-01-13T01:18:50;9.00;99.90
60723;DHT22;46574;52.818;6.516;2023-01-13T01:21:17;9.00;99.90
60723;DHT22;46574;52.818;6.516;2023-01-13T01:23:43;8.90;99.90
60723;DHT22;46574;52.818;6.516;2023-01-13T01:26:14;9.00;99.90
60723;DHT22;46574;52.818;6.516;2023-01-13T01:28:41;8.90;99.90
60723;DHT22;46574;52.818;6.516;2023-01-13T01:31:23;8.90;99.90
60723;DHT22;46574;52.818;6.516;2023-01-13T01:33:50;8.90;99.90
60723;DHT22;46574;52.818;6.516;2023-01-13T01:36:17;8.90;99.90
60723;DHT22;46574;52.818;6.516;2023-01-13T01:38:44;8.90;99.90
60723;DHT22;46574;52.818;6.516;2023-01-13T01:41:15;8.90;99.90
60723;DHT22;46574;52.818;6.516;2023-01-13T01:44:06;8.90;99.90
60723;DHT22;46574;52.818;6.516;2023-01-13T01:46:38;8.80;99.90
60723;DHT22;46574;52.818;6.516;2023-01-13T01:51:47;8.80;99.90
60723;DHT22;46574;52.818;6.516;2023-01-13T01:54:22;8.80;99.90
60723;DHT22;46574;52.818;6.516;2023-01-13T01:56:48;8.80;99.90
60723;DHT22;46574;52.818;6.516;2023-01-13T01:59:15;8.80;99.90
60723;DHT22;46574;52.818;6.516;2023-01-13T02:01:42;8.80;99.90
60723;DHT22;46574;52.818;6.516;2023-01-13T02:04:18;8.80;99.90
60723;DHT22;46574;52.818;6.516;2023-01-13T02:06:46;8.80;99.90
60723;DHT22;46574;52.818;6.516;2023-01-13T02:09:12;8.70;99.90
60723;DHT22;46574;52.818;6.516;2023-01-13T02:11:38;8.70;99.90
60723;DHT22;46574;52.818;6.516;2023-01-13T02:14:25;8.70;99.90
60723;DHT22;46574;52.818;6.516;2023-01-13T02:17:26;8.70;99.90
60723;DHT22;46574;52.818;6.516;2023-01-13T02:28:49;8.60;99.90
60723;DHT22;46574;52.818;6.516;2023-01-13T02:31:42;8.70;99.90
60723;DHT22;46574;52.818;6.516;2023-01-13T02:34:24;8.70;99.90
60723;DHT22;46574;52.818;6.516;2023-01-13T02:37:36;8.60;99.90
60723;DHT22;46574;52.818;6.516;2023-01-13T02:39:56;8.60;99.90
60723;DHT22;46574;52.818;6.516;2023-01-13T02:42:48;8.50;99.90
60723;DHT22;46574;52.818;6.516;2023-01-13T02:45:57;8.50;99.90
60723;DHT22;46574;52.818;6.516;2023-01-13T02:48:27;8.40;99.90
60723;DHT22;46574;52.818;6.516;2023-01-13T02:51:06;8.40;99.90
60723;DHT22;46574;52.818;6.516;2023-01-13T02:53:37;8.40;99.90
60723;DHT22;46574;52.818;6.516;2023-01-13T02:56:05;8.40;99.90
60723;DHT22;46574;52.818;6.516;2023-01-13T02:58:34;8.40;99.90
60723;DHT22;46574;52.818;6.516;2023-01-13T03:01:00;8.50;99.90
60723;DHT22;46574;52.818;6.516;2023-01-13T03:03:26;8.50;99.90
60723;DHT22;46574;52.818;6.516;2023-01-13T03:06:00;8.50;99.90
60723;DHT22;46574;52.818;6.516;2023-01-13T03:08:44;8.50;99.90
60723;DHT22;46574;52.818;6.516;2023-01-13T03:11:15;8.50;99.90
60723;DHT22;46574;52.818;6.516;2023-01-13T03:13:50;8.50;99.90
60723;DHT22;46574;52.818;6.516;2023-01-13T03:19:42;8.50;99.90
60723;DHT22;46574;52.818;6.516;2023-01-13T03:33:05;8.70;99.90
60723;DHT22;46574;52.818;6.516;2023-01-13T03:35:53;8.70;99.90
60723;DHT22;46574;52.818;6.516;2023-01-13T03:38:32;8.70;99.90
60723;DHT22;46574;52.818;6.516;2023-01-13T03:41:01;8.70;99.90
60723;DHT22;46574;52.818;6.516;2023-01-13T03:43:42;8.70;99.90
60723;DHT22;46574;52.818;6.516;2023-01-13T03:46:36;8.70;99.90
60723;DHT22;46574;52.818;6.516;2023-01-13T03:49:05;8.70;99.90
60723;DHT22;46574;52.818;6.516;2023-01-13T03:51:34;8.70;99.90
60723;DHT22;46574;52.818;6.516;2023-01-13T03:54:06;8.70;99.90
60723;DHT22;46574;52.818;6.516;2023-01-13T03:56:47;8.70;99.90
60723;DHT22;46574;52.818;6.516;2023-01-13T03:59:21;8.70;99.90
60723;DHT22;46574;52.818;6.516;2023-01-13T04:01:58;8.70;99.90
60723;DHT22;46574;52.818;6.516;2023-01-13T04:04:29;8.60;99.90
60723;DHT22;46574;52.818;6.516;2023-01-13T04:07:15;8.60;99.90
60723;DHT22;46574;52.818;6.516;2023-01-13T04:09:49;8.60;99.90
60723;DHT22;46574;52.818;6.516;2023-01-13T04:13:14;8.70;99.90
60723;DHT22;46574;52.818;6.516;2023-01-13T04:15:35;8.70;99.90
60723;DHT22;46574;52.818;6.516;2023-01-13T04:18:08;8.70;99.90
60723;DHT22;46574;52.818;6.516;2023-01-13T04:20:36;8.80;99.90
60723;DHT22;46574;52.818;6.516;2023-01-13T04:23:02;8.80;99.90
60723;DHT22;46574;52.818;6.516;2023-01-13T04:25:27;8.80;99.90
60723;DHT22;46574;52.818;6.516;2023-01-13T04:27:53;8.80;99.90
60723;DHT22;46574;52.818;6.516;2023-01-13T04:30:19;8.80;99.90
60723;DHT22;46574;52.818;6.516;2023-01-13T04:32:44;8.80;99.90
60723;DHT22;46574;52.818;6.516;2023-01-13T04:35:10;8.80;99.90
60723;DHT22;46574;52.818;6.516;2023-01-13T04:37:36;8.80;99.90
60723;DHT22;46574;52.818;6.516;2023-01-13T04:40:02;8.80;99.90
60723;DHT22;46574;52.818;6.516;2023-01-13T04:42:28;8.80;99.90
60723;DHT22;46574;52.818;6.516;2023-01-13T04:44:53;8.80;99.90
60723;DHT22;46574;52.818;6.516;2023-01-13T04:47:19;8.80;99.90
60723;DHT22;46574;52.818;6.516;2023-01-13T04:49:44;8.70;99.90
60723;DHT22;46574;52.818;6.516;2023-01-13T04:52:10;8.70;99.90
60723;DHT22;46574;52.818;6.516;2023-01-13T04:54:36;8.70;99.90
60723;DHT22;46574;52.818;6.516;2023-01-13T04:57:01;8.70;99.90
60723;DHT22;46574;52.818;6.516;2023-01-13T04:59:27;8.70;99.90
60723;DHT22;46574;52.818;6.516;2023-01-13T05:01:53;8.60;99.90
60723;DHT22;46574;52.818;6.516;2023-01-13T05:04:18;8.60;99.90
60723;DHT22;46574;52.818;6.516;2023-01-13T05:06:44;8.60;99.90
60723;DHT22;46574;52.818;6.516;2023-01-13T05:09:10;8.60;99.90
60723;DHT22;46574;52.818;6.516;2023-01-13T05:11:38;8.60;99.90
60723;DHT22;46574;52.818;6.516;2023-01-13T05:14:22;8.60;99.90
60723;DHT22;46574;52.818;6.516;2023-01-13T05:17:07;8.50;99.90
60723;DHT22;46574;52.818;6.516;2023-01-13T05:19:35;8.60;99.90
60723;DHT22;46574;52.818;6.516;2023-01-13T05:22:02;8.50;99.90
60723;DHT22;46574;52.818;6.516;2023-01-13T05:24:46;8.50;99.90
60723;DHT22;46574;52.818;6.516;2023-01-13T05:27:31;8.50;99.90
60723;DHT22;46574;52.818;6.516;2023-01-13T05:29:57;8.60;99.90
60723;DHT22;46574;52.818;6.516;2023-01-13T05:32:23;8.50;99.90
60723;DHT22;46574;52.818;6.516;2023-01-13T05:34:49;8.50;99.90
60723;DHT22;46574;52.818;6.516;2023-01-13T05:37:15;8.60;99.90
60723;DHT22;46574;52.818;6.516;2023-01-13T05:39:41;8.60;99.90
60723;DHT22;46574;52.818;6.516;2023-01-13T05:42:25;8.50;99.90
60723;DHT22;46574;52.818;6.516;2023-01-13T05:45:10;8.50;99.90
60723;DHT22;46574;52.818;6.516;2023-01-13T05:47:38;8.50;99.90
60723;DHT22;46574;52.818;6.516;2023-01-13T05:50:04;8.50;99.90
60723;DHT22;46574;52.818;6.516;2023-01-13T05:52:30;8.60;99.90
60723;DHT22;46574;52.818;6.516;2023-01-13T05:54:56;8.50;99.90
60723;DHT22;46574;52.818;6.516;2023-01-13T05:57:22;8.50;99.90
60723;DHT22;46574;52.818;6.516;2023-01-13T05:59:47;8.50;99.90
60723;DHT22;46574;52.818;6.516;2023-01-13T06:02:13;8.50;99.90
60723;DHT22;46574;52.818;6.516;2023-01-13T06:04:39;8.50;99.90
60723;DHT22;46574;52.818;6.516;2023-01-13T06:07:04;8.50;99.90
60723;DHT22;46574;52.818;6.516;2023-01-13T06:09:30;8.50;99.90
60723;DHT22;46574;52.818;6.516;2023-01-13T06:11:56;8.60;99.90
60723;DHT22;46574;52.818;6.516;2023-01-13T06:14:22;8.60;99.90
60723;DHT22;46574;52.818;6.516;2023-01-13T06:16:47;8.50;99.90
60723;DHT22;46574;52.818;6.516;2023-01-13T06:19:13;8.60;99.90
60723;DHT22;46574;52.818;6.516;2023-01-13T06:21:39;8.60;99.90
60723;DHT22;46574;52.818;6.516;2023-01-13T06:24:05;8.60;99.90
60723;DHT22;46574;52.818;6.516;2023-01-13T06:26:35;8.60;99.90
60723;DHT22;46574;52.818;6.516;2023-01-13T06:29:01;8.70;99.90
60723;DHT22;46574;52.818;6.516;2023-01-13T06:31:26;8.70;99.90
60723;DHT22;46574;52.818;6.516;2023-01-13T06:34:06;8.60;99.90
60723;DHT22;46574;52.818;6.516;2023-01-13T06:36:39;8.70;99.90
60723;DHT22;46574;52.818;6.516;2023-01-13T06:39:07;8.60;99.90
60723;DHT22;46574;52.818;6.516;2023-01-13T06:41:35;8.70;99.90
60723;DHT22;46574;52.818;6.516;2023-01-13T06:44:20;8.70;99.90
60723;DHT22;46574;52.818;6.516;2023-01-13T06:46:47;8.70;99.90
60723;DHT22;46574;52.818;6.516;2023-01-13T06:49:12;8.70;99.90
60723;DHT22;46574;52.818;6.516;2023-01-13T06:51:38;8.60;99.90
60723;DHT22;46574;52.818;6.516;2023-01-13T06:54:04;8.60;99.90
60723;DHT22;46574;52.818;6.516;2023-01-13T06:56:29;8.60;99.90
60723;DHT22;46574;52.818;6.516;2023-01-13T06:58:55;8.60;99.90
60723;DHT22;46574;52.818;6.516;2023-01-13T07:01:21;8.60;99.90
60723;DHT22;46574;52.818;6.516;2023-01-13T07:03:47;8.60;99.90
60723;DHT22;46574;52.818;6.516;2023-01-13T07:06:12;8.60;99.90
60723;DHT22;46574;52.818;6.516;2023-01-13T07:08:38;8.60;99.90
60723;DHT22;46574;52.818;6.516;2023-01-13T07:11:04;8.60;99.90
60723;DHT22;46574;52.818;6.516;2023-01-13T07:13:29;8.60;99.90
60723;DHT22;46574;52.818;6.516;2023-01-13T07:16:13;8.60;99.90
60723;DHT22;46574;52.818;6.516;2023-01-13T07:18:39;8.50;99.90
60723;DHT22;46574;52.818;6.516;2023-01-13T07:21:09;8.50;99.90
60723;DHT22;46574;52.818;6.516;2023-01-13T07:23:39;8.50;99.90
60723;DHT22;46574;52.818;6.516;2023-01-13T07:26:06;8.50;99.90
60723;DHT22;46574;52.818;6.516;2023-01-13T07:28:33;8.40;99.90
60723;DHT22;46574;52.818;6.516;2023-01-13T07:30:59;8.40;99.90
60723;DHT22;46574;52.818;6.516;2023-01-13T07:33:25;8.40;99.90
60723;DHT22;46574;52.818;6.516;2023-01-13T07:35:58;8.40;99.90
60723;DHT22;46574;52.818;6.516;2023-01-13T07:38:25;8.30;99.90
60723;DHT22;46574;52.818;6.516;2023-01-13T07:40:51;8.30;99.90
60723;DHT22;46574;52.818;6.516;2023-01-13T07:43:17;8.20;99.90
60723;DHT22;46574;52.818;6.516;2023-01-13T07:46:02;8.20;99.90
60723;DHT22;46574;52.818;6.516;2023-01-13T07:48:30;8.10;99.90
60723;DHT22;46574;52.818;6.516;2023-01-13T07:50:56;8.10;99.90
60723;DHT22;46574;52.818;6.516;2023-01-13T07:53:25;8.10;99.90
60723;DHT22;46574;52.818;6.516;2023-01-13T07:55:54;8.00;99.90
60723;DHT22;46574;52.818;6.516;2023-01-13T07:58:21;8.00;99.90
60723;DHT22;46574;52.818;6.516;2023-01-13T08:00:46;8.00;99.90
60723;DHT22;46574;52.818;6.516;2023-01-13T08:03:12;8.00;99.90
60723;DHT22;46574;52.818;6.516;2023-01-13T08:05:38;8.00;99.90
60723;DHT22;46574;52.818;6.516;2023-01-13T08:08:03;7.90;99.90
60723;DHT22;46574;52.818;6.516;2023-01-13T08:10:29;7.90;99.90
60723;DHT22;46574;52.818;6.516;2023-01-13T08:12:55;7.90;99.90
60723;DHT22;46574;52.818;6.516;2023-01-13T08:15:38;7.90;99.90
60723;DHT22;46574;52.818;6.516;2023-01-13T08:18:04;7.90;99.90
60723;DHT22;46574;52.818;6.516;2023-01-13T08:20:30;7.90;99.90
60723;DHT22;46574;52.818;6.516;2023-01-13T08:22:59;7.90;99.90
60723;DHT22;46574;52.818;6.516;2023-01-13T08:25:26;7.90;99.90
60723;DHT22;46574;52.818;6.516;2023-01-13T08:27:53;7.90;99.90
60723;DHT22;46574;52.818;6.516;2023-01-13T08:30:19;7.90;99.90
60723;DHT22;46574;52.818;6.516;2023-01-13T08:32:46;7.90;99.90
60723;DHT22;46574;52.818;6.516;2023-01-13T08:35:13;7.90;99.90
60723;DHT22;46574;52.818;6.516;2023-01-13T08:37:38;7.80;99.90
60723;DHT22;46574;52.818;6.516;2023-01-13T08:40:05;7.90;99.90
60723;DHT22;46574;52.818;6.516;2023-01-13T08:42:31;7.90;99.90
60723;DHT22;46574;52.818;6.516;2023-01-13T08:44:57;7.90;99.90
60723;DHT22;46574;52.818;6.516;2023-01-13T08:47:23;7.90;99.90
60723;DHT22;46574;52.818;6.516;2023-01-13T08:49:49;7.90;99.90
60723;DHT22;46574;52.818;6.516;2023-01-13T08:52:15;7.90;99.90
60723;DHT22;46574;52.818;6.516;2023-01-13T08:54:41;7.90;99.90
60723;DHT22;46574;52.818;6.516;2023-01-13T08:57:06;7.90;99.90
60723;DHT22;46574;52.818;6.516;2023-01-13T08:59:32;7.90;99.90
60723;DHT22;46574;52.818;6.516;2023-01-13T09:01:58;7.90;99.90
60723;DHT22;46574;52.818;6.516;2023-01-13T09:04:25;8.00;99.90
60723;DHT22;46574;52.818;6.516;2023-01-13T09:06:53;8.00;99.90
60723;DHT22;46574;52.818;6.516;2023-01-13T09:09:19;8.00;99.90
60723;DHT22;46574;52.818;6.516;2023-01-13T09:11:48;8.00;99.90
60723;DHT22;46574;52.818;6.516;2023-01-13T09:14:35;8.00;99.90
60723;DHT22;46574;52.818;6.516;2023-01-13T09:17:01;8.10;99.90
60723;DHT22;46574;52.818;6.516;2023-01-13T09:19:28;8.10;99.90
60723;DHT22;46574;52.818;6.516;2023-01-13T09:21:54;8.10;99.90
60723;DHT22;46574;52.818;6.516;2023-01-13T09:24:21;8.20;99.90
60723;DHT22;46574;52.818;6.516;2023-01-13T09:26:47;8.30;99.90
60723;DHT22;46574;52.818;6.516;2023-01-13T09:29:13;8.20;99.90
60723;DHT22;46574;52.818;6.516;2023-01-13T09:31:39;8.30;99.90
60723;DHT22;46574;52.818;6.516;2023-01-13T09:34:05;8.30;99.90
60723;DHT22;46574;52.818;6.516;2023-01-13T09:36:50;8.30;99.90
60723;DHT22;46574;52.818;6.516;2023-01-13T09:39:17;8.30;99.90
60723;DHT22;46574;52.818;6.516;2023-01-13T09:41:48;8.30;99.90
60723;DHT22;46574;52.818;6.516;2023-01-13T09:47:31;8.30;99.90
60723;DHT22;46574;52.818;6.516;2023-01-13T09:52:45;8.30;99.90
60723;DHT22;46574;52.818;6.516;2023-01-13T09:55:15;8.30;99.90
60723;DHT22;46574;52.818;6.516;2023-01-13T09:57:41;8.30;99.90
60723;DHT22;46574;52.818;6.516;2023-01-13T10:05:46;8.30;99.90
60723;DHT22;46574;52.818;6.516;2023-01-13T10:08:20;8.30;99.90
60723;DHT22;46574;52.818;6.516;2023-01-13T10:11:01;8.30;99.90
60723;DHT22;46574;52.818;6.516;2023-01-13T10:13:48;8.30;99.90
60723;DHT22;46574;52.818;6.516;2023-01-13T10:16:33;8.20;99.90
60723;DHT22;46574;52.818;6.516;2023-01-13T10:19:28;8.20;99.90
60723;DHT22;46574;52.818;6.516;2023-01-13T10:29:48;8.30;99.90
60723;DHT22;46574;52.818;6.516;2023-01-13T10:32:14;8.30;99.90
60723;DHT22;46574;52.818;6.516;2023-01-13T10:34:48;8.30;99.90
60723;DHT22;46574;52.818;6.516;2023-01-13T10:37:25;8.20;99.90
60723;DHT22;46574;52.818;6.516;2023-01-13T10:39:55;8.30;99.90
60723;DHT22;46574;52.818;6.516;2023-01-13T10:42:22;8.20;99.90
60723;DHT22;46574;52.818;6.516;2023-01-13T10:44:56;8.30;99.90
60723;DHT22;46574;52.818;6.516;2023-01-13T10:52:59;8.30;99.90
60723;DHT22;46574;52.818;6.516;2023-01-13T10:55:26;8.20;99.90
60723;DHT22;46574;52.818;6.516;2023-01-13T10:57:52;8.20;99.90
60723;DHT22;46574;52.818;6.516;2023-01-13T11:00:33;8.20;99.90
60723;DHT22;46574;52.818;6.516;2023-01-13T11:03:35;8.20;99.90
60723;DHT22;46574;52.818;6.516;2023-01-13T11:06:01;8.20;99.90
60723;DHT22;46574;52.818;6.516;2023-01-13T11:08:42;8.20;99.90
60723;DHT22;46574;52.818;6.516;2023-01-13T11:11:43;8.30;99.90
60723;DHT22;46574;52.818;6.516;2023-01-13T11:17:11;8.30;99.90
60723;DHT22;46574;52.818;6.516;2023-01-13T11:19:45;8.30;99.90
60723;DHT22;46574;52.818;6.516;2023-01-13T11:22:20;8.30;99.90
60723;DHT22;46574;52.818;6.516;2023-01-13T11:24:55;8.30;99.90
60723;DHT22;46574;52.818;6.516;2023-01-13T11:33:03;8.30;99.90
60723;DHT22;46574;52.818;6.516;2023-01-13T11:35:33;8.30;99.90
60723;DHT22;46574;52.818;6.516;2023-01-13T11:38:36;8.30;99.90
60723;DHT22;46574;52.818;6.516;2023-01-13T11:44:20;8.30;99.90
60723;DHT22;46574;52.818;6.516;2023-01-13T11:46:50;8.40;99.90
60723;DHT22;46574;52.818;6.516;2023-01-13T11:49:28;8.40;99.90
60723;DHT22;46574;52.818;6.516;2023-01-13T11:52:13;8.40;99.90
60723;DHT22;46574;52.818;6.516;2023-01-13T11:55:14;8.40;99.90
60723;DHT22;46574;52.818;6.516;2023-01-13T11:58:06;8.50;99.90
60723;DHT22;46574;52.818;6.516;2023-01-13T12:01:12;8.50;99.90
60723;DHT22;46574;52.818;6.516;2023-01-13T12:03:54;8.50;99.90
60723;DHT22;46574;52.818;6.516;2023-01-13T12:06:36;8.60;99.90
60723;DHT22;46574;52.818;6.516;2023-01-13T12:12:02;8.70;99.90
60723;DHT22;46574;52.818;6.516;2023-01-13T12:21:35;9.00;99.90
60723;DHT22;46574;52.818;6.516;2023-01-13T12:23:57;9.00;99.90
60723;DHT22;46574;52.818;6.516;2023-01-13T12:26:25;9.10;99.90
60723;DHT22;46574;52.818;6.516;2023-01-13T12:29:02;9.10;99.90
60723;DHT22;46574;52.818;6.516;2023-01-13T12:31:29;9.10;99.90
60723;DHT22;46574;52.818;6.516;2023-01-13T12:42:03;9.00;99.90
60723;DHT22;46574;52.818;6.516;2023-01-13T12:45:24;9.00;99.90
60723;DHT22;46574;52.818;6.516;2023-01-13T12:47:51;9.00;99.90
60723;DHT22;46574;52.818;6.516;2023-01-13T12:52:46;9.10;99.90
60723;DHT22;46574;52.818;6.516;2023-01-13T12:55:15;9.10;99.90
60723;DHT22;46574;52.818;6.516;2023-01-13T13:00:20;9.20;99.90
60723;DHT22;46574;52.818;6.516;2023-01-13T13:13:57;9.10;99.90
60723;DHT22;46574;52.818;6.516;2023-01-13T13:22:14;9.20;99.90
60723;DHT22;46574;52.818;6.516;2023-01-13T13:25:28;9.20;99.90
60723;DHT22;46574;52.818;6.516;2023-01-13T13:27:43;9.20;99.90
60723;DHT22;46574;52.818;6.516;2023-01-13T13:41:17;9.30;99.90
60723;DHT22;46574;52.818;6.516;2023-01-13T13:44:14;9.30;99.90
60723;DHT22;46574;52.818;6.516;2023-01-13T13:47:02;9.30;99.90
60723;DHT22;46574;52.818;6.516;2023-01-13T13:49:43;9.30;99.90
60723;DHT22;46574;52.818;6.516;2023-01-13T13:52:34;9.20;99.90
60723;DHT22;46574;52.818;6.516;2023-01-13T13:55:23;9.20;99.90
60723;DHT22;46574;52.818;6.516;2023-01-13T13:57:51;9.10;99.90
60723;DHT22;46574;52.818;6.516;2023-01-13T14:00:33;9.10;99.90
60723;DHT22;46574;52.818;6.516;2023-01-13T14:03:01;9.10;99.90
60723;DHT22;46574;52.818;6.516;2023-01-13T14:05:32;9.10;99.90
60723;DHT22;46574;52.818;6.516;2023-01-13T14:08:08;9.10;99.90
60723;DHT22;46574;52.818;6.516;2023-01-13T14:10:37;9.10;99.90
60723;DHT22;46574;52.818;6.516;2023-01-13T14:13:26;9.10;99.90
60723;DHT22;46574;52.818;6.516;2023-01-13T14:16:01;9.10;99.90
60723;DHT22;46574;52.818;6.516;2023-01-13T14:18:28;9.10;99.90
60723;DHT22;46574;52.818;6.516;2023-01-13T14:21:01;9.10;99.90
60723;DHT22;46574;52.818;6.516;2023-01-13T14:23:30;9.10;99.90
60723;DHT22;46574;52.818;6.516;2023-01-13T14:26:01;9.10;99.90
60723;DHT22;46574;52.818;6.516;2023-01-13T14:28:30;9.00;99.90
60723;DHT22;46574;52.818;6.516;2023-01-13T14:30:59;9.00;99.90
60723;DHT22;46574;52.818;6.516;2023-01-13T14:33:35;8.90;99.90
60723;DHT22;46574;52.818;6.516;2023-01-13T14:41:49;8.90;99.90
60723;DHT22;46574;52.818;6.516;2023-01-13T14:44:31;8.90;99.90
60723;DHT22;46574;52.818;6.516;2023-01-13T14:47:03;8.90;99.90
60723;DHT22;46574;52.818;6.516;2023-01-13T14:50:03;8.90;99.90
60723;DHT22;46574;52.818;6.516;2023-01-13T14:52:31;9.00;99.90
60723;DHT22;46574;52.818;6.516;2023-01-13T14:57:39;9.00;99.90
60723;DHT22;46574;52.818;6.516;2023-01-13T15:02:42;9.00;99.90
60723;DHT22;46574;52.818;6.516;2023-01-13T15:08:01;9.10;99.90
60723;DHT22;46574;52.818;6.516;2023-01-13T15:10:32;9.10;99.90
60723;DHT22;46574;52.818;6.516;2023-01-13T15:13:00;9.10;99.90
60723;DHT22;46574;52.818;6.516;2023-01-13T15:15:28;9.10;99.90
60723;DHT22;46574;52.818;6.516;2023-01-13T15:17:55;9.10;99.90
60723;DHT22;46574;52.818;6.516;2023-01-13T15:20:22;9.10;99.90
60723;DHT22;46574;52.818;6.516;2023-01-13T15:22:49;9.10;99.90
60723;DHT22;46574;52.818;6.516;2023-01-13T15:25:15;9.10;99.90
60723;DHT22;46574;52.818;6.516;2023-01-13T15:27:42;9.20;99.90
60723;DHT22;46574;52.818;6.516;2023-01-13T15:30:13;9.20;99.90
60723;DHT22;46574;52.818;6.516;2023-01-13T15:32:40;9.10;99.90
60723;DHT22;46574;52.818;6.516;2023-01-13T15:35:06;9.10;99.90
60723;DHT22;46574;52.818;6.516;2023-01-13T15:37:32;9.10;99.90
60723;DHT22;46574;52.818;6.516;2023-01-13T15:39:57;9.10;99.90
60723;DHT22;46574;52.818;6.516;2023-01-13T15:42:23;9.10;99.90
60723;DHT22;46574;52.818;6.516;2023-01-13T15:45:11;9.10;99.90
60723;DHT22;46574;52.818;6.516;2023-01-13T15:47:56;9.10;99.90
60723;DHT22;46574;52.818;6.516;2023-01-13T15:50:22;9.00;99.90
60723;DHT22;46574;52.818;6.516;2023-01-13T15:52:50;8.90;99.90
60723;DHT22;46574;52.818;6.516;2023-01-13T15:55:15;8.90;99.90
60723;DHT22;46574;52.818;6.516;2023-01-13T15:57:47;8.80;99.90
60723;DHT22;46574;52.818;6.516;2023-01-13T16:00:16;8.80;99.90
60723;DHT22;46574;52.818;6.516;2023-01-13T16:02:44;8.70;99.90
60723;DHT22;46574;52.818;6.516;2023-01-13T16:05:10;8.70;99.90
60723;DHT22;46574;52.818;6.516;2023-01-13T16:07:36;8.60;99.90
60723;DHT22;46574;52.818;6.516;2023-01-13T16:10:04;8.60;99.90
60723;DHT22;46574;52.818;6.516;2023-01-13T16:12:30;8.70;99.90
60723;DHT22;46574;52.818;6.516;2023-01-13T16:14:56;8.60;99.90
60723;DHT22;46574;52.818;6.516;2023-01-13T16:17:23;8.60;99.90
60723;DHT22;46574;52.818;6.516;2023-01-13T16:19:50;8.60;99.90
60723;DHT22;46574;52.818;6.516;2023-01-13T16:22:16;8.60;99.90
60723;DHT22;46574;52.818;6.516;2023-01-13T16:24:42;8.60;99.90
60723;DHT22;46574;52.818;6.516;2023-01-13T16:29:39;8.60;99.90
60723;DHT22;46574;52.818;6.516;2023-01-13T16:32:05;8.60;99.90
60723;DHT22;46574;52.818;6.516;2023-01-13T16:34:30;8.60;99.90
60723;DHT22;46574;52.818;6.516;2023-01-13T16:36:57;8.60;99.90
60723;DHT22;46574;52.818;6.516;2023-01-13T16:39:22;8.50;99.90
60723;DHT22;46574;52.818;6.516;2023-01-13T16:41:48;8.60;99.90
60723;DHT22;46574;52.818;6.516;2023-01-13T16:44:14;8.60;99.90
60723;DHT22;46574;52.818;6.516;2023-01-13T16:46:40;8.60;99.90
60723;DHT22;46574;52.818;6.516;2023-01-13T16:49:09;8.50;99.90
60723;DHT22;46574;52.818;6.516;2023-01-13T16:51:36;8.50;99.90
60723;DHT22;46574;52.818;6.516;2023-01-13T16:54:01;8.50;99.90
60723;DHT22;46574;52.818;6.516;2023-01-13T16:56:30;8.50;99.90
60723;DHT22;46574;52.818;6.516;2023-01-13T16:58:57;8.50;99.90
60723;DHT22;46574;52.818;6.516;2023-01-13T17:01:24;8.60;99.90
60723;DHT22;46574;52.818;6.516;2023-01-13T17:03:50;8.50;99.90
60723;DHT22;46574;52.818;6.516;2023-01-13T17:06:36;8.50;99.90
60723;DHT22;46574;52.818;6.516;2023-01-13T17:09:11;8.50;99.90
60723;DHT22;46574;52.818;6.516;2023-01-13T17:11:39;8.50;99.90
60723;DHT22;46574;52.818;6.516;2023-01-13T17:14:05;8.50;99.90
60723;DHT22;46574;52.818;6.516;2023-01-13T17:16:31;8.50;99.90
60723;DHT22;46574;52.818;6.516;2023-01-13T17:18:56;8.50;99.90
60723;DHT22;46574;52.818;6.516;2023-01-13T17:21:22;8.50;99.90
60723;DHT22;46574;52.818;6.516;2023-01-13T17:23:48;8.50;99.90
60723;DHT22;46574;52.818;6.516;2023-01-13T17:26:34;8.50;99.90
60723;DHT22;46574;52.818;6.516;2023-01-13T17:29:03;8.40;99.90
60723;DHT22;46574;52.818;6.516;2023-01-13T17:31:29;8.40;99.90
60723;DHT22;46574;52.818;6.516;2023-01-13T17:33:55;8.30;99.90
60723;DHT22;46574;52.818;6.516;2023-01-13T17:36:20;8.30;99.90
60723;DHT22;46574;52.818;6.516;2023-01-13T17:38:46;8.30;99.90
60723;DHT22;46574;52.818;6.516;2023-01-13T17:41:12;8.30;99.90
60723;DHT22;46574;52.818;6.516;2023-01-13T17:43:37;8.30;99.90
60723;DHT22;46574;52.818;6.516;2023-01-13T17:46:10;8.30;99.90
60723;DHT22;46574;52.818;6.516;2023-01-13T17:48:37;8.30;99.90
60723;DHT22;46574;52.818;6.516;2023-01-13T17:51:03;8.30;99.90
60723;DHT22;46574;52.818;6.516;2023-01-13T17:53:32;8.30;99.90
60723;DHT22;46574;52.818;6.516;2023-01-13T17:55:58;8.30;99.90
60723;DHT22;46574;52.818;6.516;2023-01-13T17:58:24;8.30;99.90
60723;DHT22;46574;52.818;6.516;2023-01-13T18:00:50;8.30;99.90
60723;DHT22;46574;52.818;6.516;2023-01-13T18:03:16;8.20;99.90
60723;DHT22;46574;52.818;6.516;2023-01-13T18:05:42;8.20;99.90
60723;DHT22;46574;52.818;6.516;2023-01-13T18:08:09;8.20;99.90
60723;DHT22;46574;52.818;6.516;2023-01-13T18:10:35;8.20;99.90
60723;DHT22;46574;52.818;6.516;2023-01-13T18:13:01;8.20;99.90
60723;DHT22;46574;52.818;6.516;2023-01-13T18:15:29;8.20;99.90
60723;DHT22;46574;52.818;6.516;2023-01-13T18:17:55;8.20;99.90